sensor_id;sensor_type;location;lat;lon;timestamp;P1;durP1;ratioP1;P2;durP2;ratioP2
57826;SDS011;43656;57.746;11.780;2022-10-16T00:01:31;14.63;;;4.63;;
57826;SDS011;43656;57.746;11.780;2022-10-16T00:03:57;23.48;;;5.55;;
57826;SDS011;43656;57.746;11.780;2022-10-16T00:06:24;19.50;;;5.47;;
57826;SDS011;43656;57.746;11.780;2022-10-16T00:08:50;18.02;;;5.50;;
57826;SDS011;43656;57.746;11.780;2022-10-16T00:11:18;24.30;;;6.22;;
57826;SDS011;43656;57.746;11.780;2022-10-16T00:13:44;21.67;;;5.50;;
57826;SDS011;43656;57.746;11.780;2022-10-16T00:16:12;16.40;;;5.45;;
57826;SDS011;43656;57.746;11.780;2022-10-16T00:18:38;20.13;;;5.43;;
57826;SDS011;43656;57.746;11.780;2022-10-16T00:21:08;16.50;;;5.10;;
57826;SDS011;43656;57.746;11.780;2022-10-16T00:23:39;15.25;;;4.90;;
57826;SDS011;43656;57.746;11.780;2022-10-16T00:26:06;16.77;;;4.60;;
57826;SDS011;43656;57.746;11.780;2022-10-16T00:28:33;22.48;;;4.70;;
57826;SDS011;43656;57.746;11.780;2022-10-16T00:31:02;17.23;;;4.50;;
57826;SDS011;43656;57.746;11.780;2022-10-16T00:33:28;21.45;;;4.10;;
57826;SDS011;43656;57.746;11.780;2022-10-16T00:35:54;15.48;;;3.63;;
57826;SDS011;43656;57.746;11.780;2022-10-16T00:38:23;24.02;;;3.90;;
57826;SDS011;43656;57.746;11.780;2022-10-16T00:40:49;15.73;;;3.05;;
57826;SDS011;43656;57.746;11.780;2022-10-16T00:43:32;20.45;;;3.75;;
57826;SDS011;43656;57.746;11.780;2022-10-16T00:54:07;17.67;;;3.10;;
57826;SDS011;43656;57.746;11.780;2022-10-16T00:56:35;19.33;;;3.05;;
57826;SDS011;43656;57.746;11.780;2022-10-16T00:59:02;19.45;;;2.92;;
57826;SDS011;43656;57.746;11.780;2022-10-16T01:01:31;18.40;;;3.42;;
57826;SDS011;43656;57.746;11.780;2022-10-16T01:03:56;15.52;;;2.90;;
57826;SDS011;43656;57.746;11.780;2022-10-16T01:06:28;18.02;;;3.30;;
57826;SDS011;43656;57.746;11.780;2022-10-16T01:14:40;17.52;;;3.25;;
57826;SDS011;43656;57.746;11.780;2022-10-16T01:17:12;20.15;;;3.15;;
57826;SDS011;43656;57.746;11.780;2022-10-16T01:22:26;20.60;;;3.65;;
57826;SDS011;43656;57.746;11.780;2022-10-16T01:25:05;17.20;;;3.17;;
57826;SDS011;43656;57.746;11.780;2022-10-16T01:27:36;24.77;;;3.35;;
57826;SDS011;43656;57.746;11.780;2022-10-16T01:35:45;16.02;;;3.08;;
57826;SDS011;43656;57.746;11.780;2022-10-16T01:38:34;21.30;;;3.83;;
57826;SDS011;43656;57.746;11.780;2022-10-16T01:41:09;17.77;;;2.65;;
57826;SDS011;43656;57.746;11.780;2022-10-16T01:43:46;21.10;;;3.05;;
57826;SDS011;43656;57.746;11.780;2022-10-16T01:46:16;15.98;;;3.38;;
57826;SDS011;43656;57.746;11.780;2022-10-16T01:48:45;24.15;;;2.97;;
57826;SDS011;43656;57.746;11.780;2022-10-16T01:51:13;20.02;;;3.25;;
57826;SDS011;43656;57.746;11.780;2022-10-16T01:53:40;23.10;;;3.58;;
57826;SDS011;43656;57.746;11.780;2022-10-16T01:56:11;18.08;;;3.13;;
57826;SDS011;43656;57.746;11.780;2022-10-16T01:58:43;22.67;;;3.20;;
57826;SDS011;43656;57.746;11.780;2022-10-16T02:01:12;17.27;;;3.08;;
57826;SDS011;43656;57.746;11.780;2022-10-16T02:03:42;26.90;;;3.10;;
57826;SDS011;43656;57.746;11.780;2022-10-16T02:06:11;18.25;;;2.78;;
57826;SDS011;43656;57.746;11.780;2022-10-16T02:08:36;14.77;;;2.90;;
57826;SDS011;43656;57.746;11.780;2022-10-16T02:11:03;25.17;;;3.45;;
57826;SDS011;43656;57.746;11.780;2022-10-16T02:13:33;30.63;;;3.72;;
57826;SDS011;43656;57.746;11.780;2022-10-16T02:16:04;19.35;;;3.05;;
57826;SDS011;43656;57.746;11.780;2022-10-16T02:18:30;23.17;;;3.33;;
57826;SDS011;43656;57.746;11.780;2022-10-16T02:23:37;18.15;;;2.72;;
57826;SDS011;43656;57.746;11.780;2022-10-16T02:26:23;15.40;;;2.85;;
57826;SDS011;43656;57.746;11.780;2022-10-16T02:28:54;22.40;;;3.30;;
57826;SDS011;43656;57.746;11.780;2022-10-16T02:31:26;25.95;;;3.45;;
57826;SDS011;43656;57.746;11.780;2022-10-16T02:33:56;27.42;;;3.40;;
57826;SDS011;43656;57.746;11.780;2022-10-16T02:36:24;21.65;;;3.08;;
57826;SDS011;43656;57.746;11.780;2022-10-16T02:38:51;22.13;;;3.47;;
57826;SDS011;43656;57.746;11.780;2022-10-16T02:41:17;21.23;;;2.97;;
57826;SDS011;43656;57.746;11.780;2022-10-16T02:43:44;23.15;;;3.22;;
57826;SDS011;43656;57.746;11.780;2022-10-16T02:46:09;16.70;;;2.58;;
57826;SDS011;43656;57.746;11.780;2022-10-16T02:48:34;20.25;;;3.03;;
57826;SDS011;43656;57.746;11.780;2022-10-16T02:51:00;20.85;;;2.80;;
57826;SDS011;43656;57.746;11.780;2022-10-16T02:53:26;20.75;;;3.05;;
57826;SDS011;43656;57.746;11.780;2022-10-16T02:55:51;18.88;;;2.65;;
57826;SDS011;43656;57.746;11.780;2022-10-16T02:58:17;18.27;;;2.58;;
57826;SDS011;43656;57.746;11.780;2022-10-16T03:00:42;20.45;;;3.00;;
57826;SDS011;43656;57.746;11.780;2022-10-16T03:03:07;22.45;;;2.83;;
57826;SDS011;43656;57.746;11.780;2022-10-16T03:05:33;26.17;;;3.17;;
57826;SDS011;43656;57.746;11.780;2022-10-16T03:07:58;15.70;;;2.50;;
57826;SDS011;43656;57.746;11.780;2022-10-16T03:10:25;21.40;;;2.80;;
57826;SDS011;43656;57.746;11.780;2022-10-16T03:12:51;22.30;;;3.47;;
57826;SDS011;43656;57.746;11.780;2022-10-16T03:15:17;18.27;;;2.72;;
57826;SDS011;43656;57.746;11.780;2022-10-16T03:17:42;22.08;;;2.97;;
57826;SDS011;43656;57.746;11.780;2022-10-16T03:20:08;22.88;;;3.40;;
57826;SDS011;43656;57.746;11.780;2022-10-16T03:22:37;22.60;;;3.28;;
57826;SDS011;43656;57.746;11.780;2022-10-16T03:25:02;19.38;;;3.05;;
57826;SDS011;43656;57.746;11.780;2022-10-16T03:27:28;26.13;;;3.33;;
57826;SDS011;43656;57.746;11.780;2022-10-16T03:29:53;21.42;;;3.40;;
57826;SDS011;43656;57.746;11.780;2022-10-16T03:32:18;28.63;;;3.67;;
57826;SDS011;43656;57.746;11.780;2022-10-16T03:34:45;17.15;;;3.63;;
57826;SDS011;43656;57.746;11.780;2022-10-16T03:37:10;25.02;;;3.42;;
57826;SDS011;43656;57.746;11.780;2022-10-16T03:39:36;24.75;;;4.65;;
57826;SDS011;43656;57.746;11.780;2022-10-16T03:42:01;20.75;;;3.60;;
57826;SDS011;43656;57.746;11.780;2022-10-16T03:44:27;22.02;;;3.33;;
57826;SDS011;43656;57.746;11.780;2022-10-16T03:46:52;22.92;;;3.58;;
57826;SDS011;43656;57.746;11.780;2022-10-16T03:49:20;25.25;;;3.67;;
57826;SDS011;43656;57.746;11.780;2022-10-16T03:51:45;21.52;;;3.63;;
57826;SDS011;43656;57.746;11.780;2022-10-16T03:54:11;23.38;;;3.65;;
57826;SDS011;43656;57.746;11.780;2022-10-16T03:56:39;26.25;;;3.80;;
57826;SDS011;43656;57.746;11.780;2022-10-16T03:59:05;24.98;;;3.92;;
57826;SDS011;43656;57.746;11.780;2022-10-16T04:01:30;16.83;;;3.40;;
57826;SDS011;43656;57.746;11.780;2022-10-16T04:03:55;19.52;;;3.40;;
57826;SDS011;43656;57.746;11.780;2022-10-16T04:06:21;22.40;;;3.80;;
57826;SDS011;43656;57.746;11.780;2022-10-16T04:08:46;20.75;;;3.50;;
57826;SDS011;43656;57.746;11.780;2022-10-16T04:11:12;27.95;;;3.85;;
57826;SDS011;43656;57.746;11.780;2022-10-16T04:13:37;23.08;;;3.55;;
57826;SDS011;43656;57.746;11.780;2022-10-16T04:16:03;23.45;;;4.28;;
57826;SDS011;43656;57.746;11.780;2022-10-16T04:18:28;16.98;;;3.33;;
57826;SDS011;43656;57.746;11.780;2022-10-16T04:20:54;21.95;;;4.38;;
57826;SDS011;43656;57.746;11.780;2022-10-16T04:23:19;29.58;;;4.40;;
57826;SDS011;43656;57.746;11.780;2022-10-16T04:25:47;19.85;;;3.90;;
57826;SDS011;43656;57.746;11.780;2022-10-16T04:28:13;23.45;;;4.32;;
57826;SDS011;43656;57.746;11.780;2022-10-16T04:30:38;24.33;;;3.65;;
57826;SDS011;43656;57.746;11.780;2022-10-16T04:33:05;18.90;;;3.65;;
57826;SDS011;43656;57.746;11.780;2022-10-16T04:35:30;28.63;;;3.88;;
57826;SDS011;43656;57.746;11.780;2022-10-16T04:37:59;22.50;;;3.65;;
57826;SDS011;43656;57.746;11.780;2022-10-16T04:40:24;20.50;;;3.50;;
57826;SDS011;43656;57.746;11.780;2022-10-16T04:42:50;22.75;;;3.97;;
57826;SDS011;43656;57.746;11.780;2022-10-16T04:45:15;22.63;;;3.92;;
57826;SDS011;43656;57.746;11.780;2022-10-16T04:47:41;21.52;;;3.83;;
57826;SDS011;43656;57.746;11.780;2022-10-16T04:50:06;22.65;;;3.40;;
57826;SDS011;43656;57.746;11.780;2022-10-16T04:52:32;19.63;;;4.38;;
57826;SDS011;43656;57.746;11.780;2022-10-16T04:54:58;21.00;;;4.78;;
57826;SDS011;43656;57.746;11.780;2022-10-16T04:57:26;22.67;;;4.00;;
57826;SDS011;43656;57.746;11.780;2022-10-16T04:59:52;30.80;;;4.43;;
57826;SDS011;43656;57.746;11.780;2022-10-16T05:02:17;18.58;;;3.85;;
57826;SDS011;43656;57.746;11.780;2022-10-16T05:04:43;24.13;;;4.40;;
57826;SDS011;43656;57.746;11.780;2022-10-16T05:07:08;20.42;;;4.15;;
57826;SDS011;43656;57.746;11.780;2022-10-16T05:09:33;21.55;;;4.22;;
57826;SDS011;43656;57.746;11.780;2022-10-16T05:11:59;25.00;;;4.10;;
57826;SDS011;43656;57.746;11.780;2022-10-16T05:14:24;27.73;;;4.45;;
57826;SDS011;43656;57.746;11.780;2022-10-16T05:16:50;23.77;;;4.68;;
57826;SDS011;43656;57.746;11.780;2022-10-16T05:19:15;22.20;;;4.93;;
57826;SDS011;43656;57.746;11.780;2022-10-16T05:21:41;21.63;;;4.88;;
57826;SDS011;43656;57.746;11.780;2022-10-16T05:24:06;24.73;;;4.95;;
57826;SDS011;43656;57.746;11.780;2022-10-16T05:26:31;26.27;;;5.15;;
57826;SDS011;43656;57.746;11.780;2022-10-16T05:28:57;24.27;;;5.63;;
57826;SDS011;43656;57.746;11.780;2022-10-16T05:31:22;23.48;;;6.20;;
57826;SDS011;43656;57.746;11.780;2022-10-16T05:33:48;23.45;;;6.53;;
57826;SDS011;43656;57.746;11.780;2022-10-16T05:36:13;28.35;;;6.32;;
57826;SDS011;43656;57.746;11.780;2022-10-16T05:38:39;28.30;;;6.57;;
57826;SDS011;43656;57.746;11.780;2022-10-16T05:41:05;25.52;;;6.05;;
57826;SDS011;43656;57.746;11.780;2022-10-16T05:43:30;29.50;;;6.57;;
57826;SDS011;43656;57.746;11.780;2022-10-16T05:45:57;31.25;;;6.20;;
57826;SDS011;43656;57.746;11.780;2022-10-16T05:48:24;30.65;;;6.15;;
57826;SDS011;43656;57.746;11.780;2022-10-16T05:51:00;27.23;;;6.22;;
57826;SDS011;43656;57.746;11.780;2022-10-16T05:53:28;27.13;;;6.03;;
57826;SDS011;43656;57.746;11.780;2022-10-16T05:55:55;23.13;;;5.22;;
57826;SDS011;43656;57.746;11.780;2022-10-16T05:58:21;24.40;;;5.50;;
57826;SDS011;43656;57.746;11.780;2022-10-16T06:00:54;29.52;;;5.32;;
57826;SDS011;43656;57.746;11.780;2022-10-16T06:03:20;23.33;;;5.10;;
57826;SDS011;43656;57.746;11.780;2022-10-16T06:05:45;28.73;;;5.93;;
57826;SDS011;43656;57.746;11.780;2022-10-16T06:08:10;27.63;;;5.43;;
57826;SDS011;43656;57.746;11.780;2022-10-16T06:10:36;27.85;;;5.78;;
57826;SDS011;43656;57.746;11.780;2022-10-16T06:13:01;22.75;;;5.60;;
57826;SDS011;43656;57.746;11.780;2022-10-16T06:15:27;25.83;;;6.13;;
57826;SDS011;43656;57.746;11.780;2022-10-16T06:17:52;28.63;;;5.57;;
57826;SDS011;43656;57.746;11.780;2022-10-16T06:20:17;28.88;;;5.97;;
57826;SDS011;43656;57.746;11.780;2022-10-16T06:22:43;26.70;;;5.95;;
57826;SDS011;43656;57.746;11.780;2022-10-16T06:25:08;23.92;;;6.20;;
57826;SDS011;43656;57.746;11.780;2022-10-16T06:27:34;20.77;;;5.72;;
57826;SDS011;43656;57.746;11.780;2022-10-16T06:29:59;28.15;;;7.20;;
57826;SDS011;43656;57.746;11.780;2022-10-16T06:32:24;24.17;;;6.72;;
57826;SDS011;43656;57.746;11.780;2022-10-16T06:34:50;28.25;;;6.82;;
57826;SDS011;43656;57.746;11.780;2022-10-16T06:37:15;22.10;;;6.10;;
57826;SDS011;43656;57.746;11.780;2022-10-16T06:39:40;24.70;;;6.70;;
57826;SDS011;43656;57.746;11.780;2022-10-16T06:42:06;29.40;;;6.97;;
57826;SDS011;43656;57.746;11.780;2022-10-16T06:44:31;21.58;;;6.55;;
57826;SDS011;43656;57.746;11.780;2022-10-16T06:46:57;20.92;;;6.40;;
57826;SDS011;43656;57.746;11.780;2022-10-16T06:49:22;27.40;;;6.63;;
57826;SDS011;43656;57.746;11.780;2022-10-16T06:51:48;25.25;;;6.80;;
57826;SDS011;43656;57.746;11.780;2022-10-16T06:54:14;17.05;;;5.80;;
57826;SDS011;43656;57.746;11.780;2022-10-16T06:56:40;19.88;;;6.05;;
57826;SDS011;43656;57.746;11.780;2022-10-16T06:59:05;19.40;;;5.50;;
57826;SDS011;43656;57.746;11.780;2022-10-16T07:01:31;22.00;;;5.35;;
57826;SDS011;43656;57.746;11.780;2022-10-16T07:03:57;21.95;;;6.15;;
57826;SDS011;43656;57.746;11.780;2022-10-16T07:06:23;18.00;;;5.38;;
57826;SDS011;43656;57.746;11.780;2022-10-16T07:08:50;26.67;;;5.47;;
57826;SDS011;43656;57.746;11.780;2022-10-16T07:11:20;20.08;;;5.00;;
57826;SDS011;43656;57.746;11.780;2022-10-16T07:13:47;14.75;;;3.42;;
57826;SDS011;43656;57.746;11.780;2022-10-16T07:16:14;19.40;;;3.53;;
57826;SDS011;43656;57.746;11.780;2022-10-16T07:18:43;16.98;;;3.03;;
57826;SDS011;43656;57.746;11.780;2022-10-16T07:21:14;11.85;;;2.50;;
57826;SDS011;43656;57.746;11.780;2022-10-16T07:23:41;19.23;;;3.03;;
57826;SDS011;43656;57.746;11.780;2022-10-16T07:26:07;14.90;;;2.25;;
57826;SDS011;43656;57.746;11.780;2022-10-16T07:28:33;16.08;;;2.88;;
57826;SDS011;43656;57.746;11.780;2022-10-16T07:31:00;14.50;;;2.58;;
57826;SDS011;43656;57.746;11.780;2022-10-16T07:33:31;19.73;;;2.83;;
57826;SDS011;43656;57.746;11.780;2022-10-16T07:35:57;14.98;;;2.80;;
57826;SDS011;43656;57.746;11.780;2022-10-16T07:38:22;15.00;;;2.65;;
57826;SDS011;43656;57.746;11.780;2022-10-16T07:40:55;16.80;;;2.33;;
57826;SDS011;43656;57.746;11.780;2022-10-16T07:43:21;13.73;;;2.30;;
57826;SDS011;43656;57.746;11.780;2022-10-16T07:45:49;15.40;;;2.15;;
57826;SDS011;43656;57.746;11.780;2022-10-16T07:48:16;14.40;;;2.78;;
57826;SDS011;43656;57.746;11.780;2022-10-16T07:50:42;14.52;;;3.13;;
57826;SDS011;43656;57.746;11.780;2022-10-16T07:53:09;14.05;;;2.50;;
57826;SDS011;43656;57.746;11.780;2022-10-16T07:55:35;17.33;;;2.40;;
57826;SDS011;43656;57.746;11.780;2022-10-16T07:58:00;17.73;;;3.60;;
57826;SDS011;43656;57.746;11.780;2022-10-16T08:00:25;16.73;;;2.67;;
57826;SDS011;43656;57.746;11.780;2022-10-16T08:02:51;12.52;;;2.33;;
57826;SDS011;43656;57.746;11.780;2022-10-16T08:05:16;17.65;;;3.03;;
57826;SDS011;43656;57.746;11.780;2022-10-16T08:07:42;19.25;;;2.97;;
57826;SDS011;43656;57.746;11.780;2022-10-16T08:10:11;22.45;;;2.90;;
57826;SDS011;43656;57.746;11.780;2022-10-16T08:12:41;13.13;;;2.67;;
57826;SDS011;43656;57.746;11.780;2022-10-16T08:15:07;15.60;;;3.35;;
57826;SDS011;43656;57.746;11.780;2022-10-16T08:17:33;17.25;;;3.30;;
57826;SDS011;43656;57.746;11.780;2022-10-16T08:20:01;17.60;;;3.38;;
57826;SDS011;43656;57.746;11.780;2022-10-16T08:22:26;16.88;;;3.17;;
57826;SDS011;43656;57.746;11.780;2022-10-16T08:24:52;19.80;;;3.28;;
57826;SDS011;43656;57.746;11.780;2022-10-16T08:27:17;18.38;;;3.55;;
57826;SDS011;43656;57.746;11.780;2022-10-16T08:29:43;16.33;;;2.97;;
57826;SDS011;43656;57.746;11.780;2022-10-16T08:32:08;21.08;;;3.78;;
57826;SDS011;43656;57.746;11.780;2022-10-16T08:34:33;20.98;;;3.47;;
57826;SDS011;43656;57.746;11.780;2022-10-16T08:36:59;18.88;;;3.47;;
57826;SDS011;43656;57.746;11.780;2022-10-16T08:39:24;21.83;;;3.65;;
57826;SDS011;43656;57.746;11.780;2022-10-16T08:47:20;21.80;;;3.42;;
57826;SDS011;43656;57.746;11.780;2022-10-16T08:50:00;26.23;;;4.82;;
57826;SDS011;43656;57.746;11.780;2022-10-16T08:52:34;20.58;;;3.58;;
57826;SDS011;43656;57.746;11.780;2022-10-16T08:55:03;23.65;;;3.90;;
57826;SDS011;43656;57.746;11.780;2022-10-16T08:57:29;24.60;;;4.38;;
57826;SDS011;43656;57.746;11.780;2022-10-16T08:59:57;21.40;;;3.78;;
57826;SDS011;43656;57.746;11.780;2022-10-16T09:15:50;25.30;;;3.70;;
57826;SDS011;43656;57.746;11.780;2022-10-16T09:18:26;27.73;;;4.30;;
57826;SDS011;43656;57.746;11.780;2022-10-16T09:23:44;23.33;;;4.03;;
57826;SDS011;43656;57.746;11.780;2022-10-16T09:26:10;20.60;;;4.05;;
57826;SDS011;43656;57.746;11.780;2022-10-16T09:28:38;26.38;;;3.92;;
57826;SDS011;43656;57.746;11.780;2022-10-16T09:31:03;26.42;;;4.05;;
57826;SDS011;43656;57.746;11.780;2022-10-16T09:33:29;23.92;;;3.50;;
57826;SDS011;43656;57.746;11.780;2022-10-16T09:36:00;21.52;;;4.10;;
57826;SDS011;43656;57.746;11.780;2022-10-16T09:38:29;23.92;;;3.53;;
57826;SDS011;43656;57.746;11.780;2022-10-16T09:40:57;21.30;;;3.78;;
57826;SDS011;43656;57.746;11.780;2022-10-16T09:46:08;22.67;;;3.95;;
57826;SDS011;43656;57.746;11.780;2022-10-16T09:48:48;22.55;;;3.83;;
57826;SDS011;43656;57.746;11.780;2022-10-16T09:51:33;22.40;;;3.38;;
57826;SDS011;43656;57.746;11.780;2022-10-16T09:56:32;21.60;;;3.50;;
57826;SDS011;43656;57.746;11.780;2022-10-16T09:59:02;26.10;;;3.72;;
57826;SDS011;43656;57.746;11.780;2022-10-16T10:01:37;26.08;;;4.03;;
57826;SDS011;43656;57.746;11.780;2022-10-16T10:04:36;24.30;;;3.45;;
57826;SDS011;43656;57.746;11.780;2022-10-16T10:07:04;25.42;;;4.15;;
57826;SDS011;43656;57.746;11.780;2022-10-16T10:09:31;25.08;;;3.95;;
57826;SDS011;43656;57.746;11.780;2022-10-16T10:12:03;25.05;;;4.45;;
57826;SDS011;43656;57.746;11.780;2022-10-16T10:14:46;23.92;;;4.50;;
57826;SDS011;43656;57.746;11.780;2022-10-16T10:17:15;23.27;;;4.13;;
57826;SDS011;43656;57.746;11.780;2022-10-16T10:19:51;26.75;;;3.80;;
57826;SDS011;43656;57.746;11.780;2022-10-16T10:33:02;23.35;;;3.47;;
57826;SDS011;43656;57.746;11.780;2022-10-16T10:41:07;20.90;;;3.75;;
57826;SDS011;43656;57.746;11.780;2022-10-16T10:46:50;29.17;;;5.45;;
57826;SDS011;43656;57.746;11.780;2022-10-16T10:49:29;34.33;;;4.32;;
57826;SDS011;43656;57.746;11.780;2022-10-16T10:54:50;25.63;;;3.65;;
57826;SDS011;43656;57.746;11.780;2022-10-16T10:57:57;20.98;;;3.03;;
57826;SDS011;43656;57.746;11.780;2022-10-16T11:03:35;17.25;;;2.60;;
57826;SDS011;43656;57.746;11.780;2022-10-16T11:14:33;26.60;;;3.85;;
57826;SDS011;43656;57.746;11.780;2022-10-16T11:17:04;29.23;;;4.30;;
57826;SDS011;43656;57.746;11.780;2022-10-16T11:20:13;31.85;;;4.78;;
57826;SDS011;43656;57.746;11.780;2022-10-16T11:22:42;17.20;;;3.97;;
57826;SDS011;43656;57.746;11.780;2022-10-16T11:25:32;20.73;;;3.25;;
57826;SDS011;43656;57.746;11.780;2022-10-16T11:28:01;32.83;;;4.40;;
57826;SDS011;43656;57.746;11.780;2022-10-16T11:38:26;20.55;;;3.50;;
57826;SDS011;43656;57.746;11.780;2022-10-16T11:41:01;20.17;;;3.45;;
57826;SDS011;43656;57.746;11.780;2022-10-16T11:43:38;21.70;;;3.50;;
57826;SDS011;43656;57.746;11.780;2022-10-16T11:46:09;22.55;;;3.28;;
57826;SDS011;43656;57.746;11.780;2022-10-16T11:48:45;21.63;;;3.95;;
57826;SDS011;43656;57.746;11.780;2022-10-16T11:51:22;21.90;;;3.30;;
57826;SDS011;43656;57.746;11.780;2022-10-16T11:53:58;23.40;;;4.28;;
57826;SDS011;43656;57.746;11.780;2022-10-16T11:56:41;21.48;;;3.65;;
57826;SDS011;43656;57.746;11.780;2022-10-16T11:59:18;29.17;;;4.88;;
57826;SDS011;43656;57.746;11.780;2022-10-16T12:01:47;28.33;;;5.00;;
57826;SDS011;43656;57.746;11.780;2022-10-16T12:06:59;32.95;;;4.80;;
57826;SDS011;43656;57.746;11.780;2022-10-16T12:09:53;31.58;;;4.05;;
57826;SDS011;43656;57.746;11.780;2022-10-16T12:14:59;32.15;;;3.65;;
57826;SDS011;43656;57.746;11.780;2022-10-16T12:17:33;25.45;;;3.08;;
57826;SDS011;43656;57.746;11.780;2022-10-16T12:22:40;16.90;;;2.55;;
57826;SDS011;43656;57.746;11.780;2022-10-16T12:28:06;21.73;;;2.80;;
57826;SDS011;43656;57.746;11.780;2022-10-16T12:30:41;14.23;;;2.53;;
57826;SDS011;43656;57.746;11.780;2022-10-16T12:33:24;29.50;;;3.17;;
57826;SDS011;43656;57.746;11.780;2022-10-16T12:35:52;21.77;;;3.15;;
57826;SDS011;43656;57.746;11.780;2022-10-16T12:38:51;23.98;;;2.70;;
57826;SDS011;43656;57.746;11.780;2022-10-16T12:41:12;23.25;;;3.28;;
57826;SDS011;43656;57.746;11.780;2022-10-16T12:43:51;28.48;;;2.92;;
57826;SDS011;43656;57.746;11.780;2022-10-16T12:48:42;29.48;;;3.58;;
57826;SDS011;43656;57.746;11.780;2022-10-16T12:54:11;23.88;;;3.83;;
57826;SDS011;43656;57.746;11.780;2022-10-16T13:10:48;14.07;;;2.40;;
57826;SDS011;43656;57.746;11.780;2022-10-16T13:13:37;14.02;;;1.98;;
57826;SDS011;43656;57.746;11.780;2022-10-16T13:19:06;13.52;;;2.20;;
57826;SDS011;43656;57.746;11.780;2022-10-16T13:29:22;18.63;;;2.75;;
57826;SDS011;43656;57.746;11.780;2022-10-16T13:31:48;18.30;;;2.88;;
57826;SDS011;43656;57.746;11.780;2022-10-16T13:34:15;16.80;;;2.75;;
57826;SDS011;43656;57.746;11.780;2022-10-16T13:36:48;15.23;;;2.58;;
57826;SDS011;43656;57.746;11.780;2022-10-16T13:39:23;19.98;;;3.30;;
57826;SDS011;43656;57.746;11.780;2022-10-16T13:44:25;17.98;;;3.45;;
57826;SDS011;43656;57.746;11.780;2022-10-16T13:46:58;16.50;;;3.47;;
57826;SDS011;43656;57.746;11.780;2022-10-16T13:49:25;17.77;;;2.47;;
57826;SDS011;43656;57.746;11.780;2022-10-16T13:51:54;16.50;;;3.10;;
57826;SDS011;43656;57.746;11.780;2022-10-16T13:54:21;25.27;;;3.67;;
57826;SDS011;43656;57.746;11.780;2022-10-16T13:56:47;14.27;;;2.42;;
57826;SDS011;43656;57.746;11.780;2022-10-16T14:02:00;17.95;;;2.85;;
57826;SDS011;43656;57.746;11.780;2022-10-16T14:04:40;13.68;;;3.25;;
57826;SDS011;43656;57.746;11.780;2022-10-16T14:07:11;15.73;;;2.88;;
57826;SDS011;43656;57.746;11.780;2022-10-16T14:09:39;17.48;;;2.85;;
57826;SDS011;43656;57.746;11.780;2022-10-16T14:12:09;18.63;;;2.83;;
57826;SDS011;43656;57.746;11.780;2022-10-16T14:14:41;16.98;;;3.10;;
57826;SDS011;43656;57.746;11.780;2022-10-16T14:17:15;16.05;;;2.70;;
57826;SDS011;43656;57.746;11.780;2022-10-16T14:19:45;16.02;;;2.80;;
57826;SDS011;43656;57.746;11.780;2022-10-16T14:22:19;15.02;;;2.75;;
57826;SDS011;43656;57.746;11.780;2022-10-16T14:24:58;14.25;;;2.40;;
57826;SDS011;43656;57.746;11.780;2022-10-16T14:27:34;18.25;;;3.15;;
57826;SDS011;43656;57.746;11.780;2022-10-16T14:30:58;18.58;;;2.97;;
57826;SDS011;43656;57.746;11.780;2022-10-16T14:33:31;17.40;;;3.20;;
57826;SDS011;43656;57.746;11.780;2022-10-16T14:36:03;17.30;;;2.95;;
57826;SDS011;43656;57.746;11.780;2022-10-16T14:38:31;21.42;;;3.50;;
57826;SDS011;43656;57.746;11.780;2022-10-16T14:40:58;26.63;;;3.90;;
57826;SDS011;43656;57.746;11.780;2022-10-16T14:43:42;23.02;;;3.45;;
57826;SDS011;43656;57.746;11.780;2022-10-16T14:46:15;17.90;;;3.63;;
57826;SDS011;43656;57.746;11.780;2022-10-16T14:48:42;17.33;;;3.28;;
57826;SDS011;43656;57.746;11.780;2022-10-16T14:51:14;27.70;;;4.65;;
57826;SDS011;43656;57.746;11.780;2022-10-16T14:53:40;19.35;;;3.85;;
57826;SDS011;43656;57.746;11.780;2022-10-16T14:56:14;19.98;;;3.45;;
57826;SDS011;43656;57.746;11.780;2022-10-16T14:58:40;23.07;;;3.20;;
57826;SDS011;43656;57.746;11.780;2022-10-16T15:01:05;23.23;;;3.88;;
57826;SDS011;43656;57.746;11.780;2022-10-16T15:03:33;17.35;;;2.88;;
57826;SDS011;43656;57.746;11.780;2022-10-16T15:05:58;22.08;;;3.22;;
57826;SDS011;43656;57.746;11.780;2022-10-16T15:08:24;15.80;;;2.75;;
57826;SDS011;43656;57.746;11.780;2022-10-16T15:10:49;22.77;;;3.53;;
57826;SDS011;43656;57.746;11.780;2022-10-16T15:13:15;19.00;;;3.10;;
57826;SDS011;43656;57.746;11.780;2022-10-16T15:15:42;16.80;;;2.67;;
57826;SDS011;43656;57.746;11.780;2022-10-16T15:18:09;20.17;;;2.95;;
57826;SDS011;43656;57.746;11.780;2022-10-16T15:20:35;17.30;;;2.70;;
57826;SDS011;43656;57.746;11.780;2022-10-16T15:23:06;20.38;;;3.30;;
57826;SDS011;43656;57.746;11.780;2022-10-16T15:28:15;19.60;;;5.28;;
57826;SDS011;43656;57.746;11.780;2022-10-16T15:30:42;24.50;;;7.00;;
57826;SDS011;43656;57.746;11.780;2022-10-16T15:33:31;27.13;;;7.10;;
57826;SDS011;43656;57.746;11.780;2022-10-16T15:35:59;29.20;;;9.48;;
57826;SDS011;43656;57.746;11.780;2022-10-16T15:38:25;31.40;;;6.82;;
57826;SDS011;43656;57.746;11.780;2022-10-16T15:41:13;24.83;;;5.55;;
57826;SDS011;43656;57.746;11.780;2022-10-16T15:43:39;18.75;;;3.78;;
57826;SDS011;43656;57.746;11.780;2022-10-16T15:46:05;26.17;;;3.50;;
57826;SDS011;43656;57.746;11.780;2022-10-16T15:48:33;23.65;;;3.55;;
57826;SDS011;43656;57.746;11.780;2022-10-16T15:51:05;17.88;;;3.13;;
57826;SDS011;43656;57.746;11.780;2022-10-16T15:53:32;18.90;;;3.38;;
57826;SDS011;43656;57.746;11.780;2022-10-16T15:56:01;18.17;;;2.97;;
57826;SDS011;43656;57.746;11.780;2022-10-16T15:58:29;18.83;;;3.05;;
57826;SDS011;43656;57.746;11.780;2022-10-16T16:00:55;21.42;;;3.83;;
57826;SDS011;43656;57.746;11.780;2022-10-16T16:03:22;28.30;;;4.25;;
57826;SDS011;43656;57.746;11.780;2022-10-16T16:05:47;21.58;;;3.65;;
57826;SDS011;43656;57.746;11.780;2022-10-16T16:08:15;20.33;;;3.08;;
57826;SDS011;43656;57.746;11.780;2022-10-16T16:10:43;23.40;;;4.20;;
57826;SDS011;43656;57.746;11.780;2022-10-16T16:13:08;17.33;;;3.13;;
57826;SDS011;43656;57.746;11.780;2022-10-16T16:15:34;22.10;;;3.92;;
57826;SDS011;43656;57.746;11.780;2022-10-16T16:18:00;19.35;;;3.05;;
57826;SDS011;43656;57.746;11.780;2022-10-16T16:20:27;18.25;;;3.65;;
57826;SDS011;43656;57.746;11.780;2022-10-16T16:22:53;14.00;;;2.83;;
57826;SDS011;43656;57.746;11.780;2022-10-16T16:25:18;16.77;;;3.10;;
57826;SDS011;43656;57.746;11.780;2022-10-16T16:27:44;21.13;;;3.33;;
57826;SDS011;43656;57.746;11.780;2022-10-16T16:30:10;17.02;;;2.83;;
57826;SDS011;43656;57.746;11.780;2022-10-16T16:32:36;21.08;;;3.17;;
57826;SDS011;43656;57.746;11.780;2022-10-16T16:35:02;20.73;;;3.08;;
57826;SDS011;43656;57.746;11.780;2022-10-16T16:37:28;17.98;;;2.90;;
57826;SDS011;43656;57.746;11.780;2022-10-16T16:39:53;16.02;;;2.78;;
57826;SDS011;43656;57.746;11.780;2022-10-16T16:42:20;21.05;;;3.35;;
57826;SDS011;43656;57.746;11.780;2022-10-16T16:44:47;19.50;;;3.28;;
57826;SDS011;43656;57.746;11.780;2022-10-16T16:47:13;26.58;;;3.28;;
57826;SDS011;43656;57.746;11.780;2022-10-16T16:49:38;19.05;;;3.13;;
57826;SDS011;43656;57.746;11.780;2022-10-16T16:52:05;23.80;;;3.75;;
57826;SDS011;43656;57.746;11.780;2022-10-16T16:54:30;25.55;;;3.67;;